sensor_id;sensor_type;location;lat;lon;timestamp;P1;durP1;ratioP1;P2;durP2;ratioP2
40675;SDS011;26359;48.750;9.314;2023-07-13T00:01:30;36.25;;;34.28;;
40675;SDS011;26359;48.750;9.314;2023-07-13T00:03:57;34.10;;;32.05;;
40675;SDS011;26359;48.750;9.314;2023-07-13T00:06:22;31.95;;;30.05;;
40675;SDS011;26359;48.750;9.314;2023-07-13T00:08:48;39.50;;;37.15;;
40675;SDS011;26359;48.750;9.314;2023-07-13T00:11:14;39.20;;;37.00;;
40675;SDS011;26359;48.750;9.314;2023-07-13T00:13:41;24.70;;;23.33;;
40675;SDS011;26359;48.750;9.314;2023-07-13T00:16:08;30.08;;;28.13;;
40675;SDS011;26359;48.750;9.314;2023-07-13T00:18:35;31.35;;;29.58;;
40675;SDS011;26359;48.750;9.314;2023-07-13T00:21:00;15.57;;;14.68;;
40675;SDS011;26359;48.750;9.314;2023-07-13T00:23:33;8.52;;;8.02;;
40675;SDS011;26359;48.750;9.314;2023-07-13T00:26:01;30.90;;;28.95;;
40675;SDS011;26359;48.750;9.314;2023-07-13T00:28:27;42.85;;;40.38;;
40675;SDS011;26359;48.750;9.314;2023-07-13T00:30:53;42.95;;;40.45;;
40675;SDS011;26359;48.750;9.314;2023-07-13T00:33:19;39.70;;;37.67;;
40675;SDS011;26359;48.750;9.314;2023-07-13T00:35:45;30.27;;;28.67;;
40675;SDS011;26359;48.750;9.314;2023-07-13T00:38:10;29.50;;;27.58;;
40675;SDS011;26359;48.750;9.314;2023-07-13T00:40:36;15.57;;;14.45;;
40675;SDS011;26359;48.750;9.314;2023-07-13T00:43:02;10.27;;;9.38;;
40675;SDS011;26359;48.750;9.314;2023-07-13T00:47:54;8.50;;;7.80;;
40675;SDS011;26359;48.750;9.314;2023-07-13T00:50:21;8.57;;;8.07;;
40675;SDS011;26359;48.750;9.314;2023-07-13T00:52:48;6.22;;;5.80;;
40675;SDS011;26359;48.750;9.314;2023-07-13T00:55:18;8.05;;;6.70;;
40675;SDS011;26359;48.750;9.314;2023-07-13T00:57:45;15.85;;;14.75;;
40675;SDS011;26359;48.750;9.314;2023-07-13T01:00:11;11.13;;;10.52;;
40675;SDS011;26359;48.750;9.314;2023-07-13T01:02:39;14.02;;;12.82;;
40675;SDS011;26359;48.750;9.314;2023-07-13T01:05:11;6.47;;;5.93;;
40675;SDS011;26359;48.750;9.314;2023-07-13T01:07:44;6.93;;;5.63;;
40675;SDS011;26359;48.750;9.314;2023-07-13T01:10:14;7.82;;;7.13;;
40675;SDS011;26359;48.750;9.314;2023-07-13T01:12:40;8.25;;;7.70;;
40675;SDS011;26359;48.750;9.314;2023-07-13T01:15:32;6.57;;;5.88;;
40675;SDS011;26359;48.750;9.314;2023-07-13T01:18:15;8.73;;;8.05;;
40675;SDS011;26359;48.750;9.314;2023-07-13T01:21:02;10.25;;;9.15;;
40675;SDS011;26359;48.750;9.314;2023-07-13T01:23:29;10.43;;;9.63;;
40675;SDS011;26359;48.750;9.314;2023-07-13T01:25:56;5.95;;;5.45;;
40675;SDS011;26359;48.750;9.314;2023-07-13T01:28:23;8.80;;;8.13;;
40675;SDS011;26359;48.750;9.314;2023-07-13T01:30:52;6.88;;;6.25;;
40675;SDS011;26359;48.750;9.314;2023-07-13T01:33:19;9.77;;;8.68;;
40675;SDS011;26359;48.750;9.314;2023-07-13T01:35:45;5.60;;;5.10;;
40675;SDS011;26359;48.750;9.314;2023-07-13T01:38:11;8.63;;;7.93;;
40675;SDS011;26359;48.750;9.314;2023-07-13T01:40:38;10.32;;;9.32;;
40675;SDS011;26359;48.750;9.314;2023-07-13T01:43:04;4.68;;;4.28;;
40675;SDS011;26359;48.750;9.314;2023-07-13T01:45:30;4.65;;;4.25;;
40675;SDS011;26359;48.750;9.314;2023-07-13T01:47:55;8.23;;;7.45;;
40675;SDS011;26359;48.750;9.314;2023-07-13T01:50:21;11.38;;;10.48;;
40675;SDS011;26359;48.750;9.314;2023-07-13T01:52:47;9.57;;;8.88;;
40675;SDS011;26359;48.750;9.314;2023-07-13T01:55:12;12.07;;;11.32;;
40675;SDS011;26359;48.750;9.314;2023-07-13T01:57:38;9.57;;;8.68;;
40675;SDS011;26359;48.750;9.314;2023-07-13T02:00:04;8.90;;;8.20;;
40675;SDS011;26359;48.750;9.314;2023-07-13T02:02:31;10.27;;;9.50;;
40675;SDS011;26359;48.750;9.314;2023-07-13T02:04:57;9.30;;;8.43;;
40675;SDS011;26359;48.750;9.314;2023-07-13T02:07:22;9.93;;;9.25;;
40675;SDS011;26359;48.750;9.314;2023-07-13T02:09:48;16.80;;;15.52;;
40675;SDS011;26359;48.750;9.314;2023-07-13T02:12:13;16.25;;;15.20;;
40675;SDS011;26359;48.750;9.314;2023-07-13T02:14:39;11.88;;;11.00;;
40675;SDS011;26359;48.750;9.314;2023-07-13T02:17:05;11.13;;;10.38;;
40675;SDS011;26359;48.750;9.314;2023-07-13T02:19:31;11.48;;;10.77;;
40675;SDS011;26359;48.750;9.314;2023-07-13T02:21:56;40.30;;;38.20;;
40675;SDS011;26359;48.750;9.314;2023-07-13T02:24:22;25.65;;;24.00;;
40675;SDS011;26359;48.750;9.314;2023-07-13T02:26:47;50.28;;;47.33;;
40675;SDS011;26359;48.750;9.314;2023-07-13T02:29:13;54.90;;;51.95;;
40675;SDS011;26359;48.750;9.314;2023-07-13T02:31:38;57.33;;;54.00;;
40675;SDS011;26359;48.750;9.314;2023-07-13T02:34:04;25.27;;;23.65;;
40675;SDS011;26359;48.750;9.314;2023-07-13T02:36:30;13.18;;;12.38;;
40675;SDS011;26359;48.750;9.314;2023-07-13T02:38:57;6.80;;;6.05;;
40675;SDS011;26359;48.750;9.314;2023-07-13T02:41:25;8.77;;;8.18;;
40675;SDS011;26359;48.750;9.314;2023-07-13T02:43:51;5.63;;;5.13;;
40675;SDS011;26359;48.750;9.314;2023-07-13T02:46:17;7.85;;;7.32;;
40675;SDS011;26359;48.750;9.314;2023-07-13T02:48:44;5.95;;;5.35;;
40675;SDS011;26359;48.750;9.314;2023-07-13T02:51:11;5.13;;;4.63;;
40675;SDS011;26359;48.750;9.314;2023-07-13T02:53:36;7.07;;;6.57;;
40675;SDS011;26359;48.750;9.314;2023-07-13T02:56:02;11.73;;;10.65;;
40675;SDS011;26359;48.750;9.314;2023-07-13T02:58:29;27.13;;;25.52;;
40675;SDS011;26359;48.750;9.314;2023-07-13T03:00:55;17.80;;;16.60;;
40675;SDS011;26359;48.750;9.314;2023-07-13T03:03:22;36.00;;;33.90;;
40675;SDS011;26359;48.750;9.314;2023-07-13T03:05:48;27.92;;;25.88;;
40675;SDS011;26359;48.750;9.314;2023-07-13T03:10:58;26.50;;;24.75;;
40675;SDS011;26359;48.750;9.314;2023-07-13T03:13:24;14.65;;;13.50;;
40675;SDS011;26359;48.750;9.314;2023-07-13T03:15:50;11.02;;;10.23;;
40675;SDS011;26359;48.750;9.314;2023-07-13T03:18:15;11.13;;;10.32;;
40675;SDS011;26359;48.750;9.314;2023-07-13T03:20:41;10.05;;;9.50;;
40675;SDS011;26359;48.750;9.314;2023-07-13T03:23:06;22.98;;;21.70;;
40675;SDS011;26359;48.750;9.314;2023-07-13T03:25:32;20.65;;;19.27;;
40675;SDS011;26359;48.750;9.314;2023-07-13T03:27:57;26.33;;;24.52;;
40675;SDS011;26359;48.750;9.314;2023-07-13T03:30:23;24.65;;;23.23;;
40675;SDS011;26359;48.750;9.314;2023-07-13T03:32:48;17.15;;;15.75;;
40675;SDS011;26359;48.750;9.314;2023-07-13T03:35:14;13.68;;;12.63;;
40675;SDS011;26359;48.750;9.314;2023-07-13T03:37:39;16.38;;;14.95;;
40675;SDS011;26359;48.750;9.314;2023-07-13T03:40:07;13.48;;;12.75;;
40675;SDS011;26359;48.750;9.314;2023-07-13T03:42:34;19.60;;;18.17;;
40675;SDS011;26359;48.750;9.314;2023-07-13T03:45:00;10.27;;;9.43;;
40675;SDS011;26359;48.750;9.314;2023-07-13T03:47:25;13.73;;;12.85;;
40675;SDS011;26359;48.750;9.314;2023-07-13T03:49:51;13.10;;;12.05;;
40675;SDS011;26359;48.750;9.314;2023-07-13T03:52:16;20.42;;;19.23;;
40675;SDS011;26359;48.750;9.314;2023-07-13T03:54:42;24.02;;;22.60;;
40675;SDS011;26359;48.750;9.314;2023-07-13T03:57:08;17.77;;;16.73;;
40675;SDS011;26359;48.750;9.314;2023-07-13T03:59:33;14.25;;;13.32;;
40675;SDS011;26359;48.750;9.314;2023-07-13T04:01:59;11.15;;;10.40;;
40675;SDS011;26359;48.750;9.314;2023-07-13T04:04:25;18.02;;;16.75;;
40675;SDS011;26359;48.750;9.314;2023-07-13T04:06:51;19.33;;;18.08;;
40675;SDS011;26359;48.750;9.314;2023-07-13T04:09:18;18.80;;;17.70;;
40675;SDS011;26359;48.750;9.314;2023-07-13T04:11:44;15.65;;;14.70;;
40675;SDS011;26359;48.750;9.314;2023-07-13T04:14:09;11.20;;;10.15;;
40675;SDS011;26359;48.750;9.314;2023-07-13T04:16:35;19.30;;;17.88;;
40675;SDS011;26359;48.750;9.314;2023-07-13T04:19:01;19.40;;;17.90;;
40675;SDS011;26359;48.750;9.314;2023-07-13T04:21:27;10.38;;;9.50;;
40675;SDS011;26359;48.750;9.314;2023-07-13T04:23:53;7.15;;;6.13;;
40675;SDS011;26359;48.750;9.314;2023-07-13T04:26:19;6.97;;;6.32;;
40675;SDS011;26359;48.750;9.314;2023-07-13T04:28:48;12.10;;;11.40;;
40675;SDS011;26359;48.750;9.314;2023-07-13T04:31:14;15.23;;;14.23;;
40675;SDS011;26359;48.750;9.314;2023-07-13T04:33:40;15.10;;;14.02;;
40675;SDS011;26359;48.750;9.314;2023-07-13T04:36:06;10.65;;;10.02;;
40675;SDS011;26359;48.750;9.314;2023-07-13T04:38:32;13.02;;;12.02;;
40675;SDS011;26359;48.750;9.314;2023-07-13T04:40:59;11.32;;;10.27;;
40675;SDS011;26359;48.750;9.314;2023-07-13T04:43:27;10.82;;;10.02;;
40675;SDS011;26359;48.750;9.314;2023-07-13T04:45:53;11.82;;;10.52;;
40675;SDS011;26359;48.750;9.314;2023-07-13T04:48:19;10.98;;;10.07;;
40675;SDS011;26359;48.750;9.314;2023-07-13T04:50:46;13.20;;;12.23;;
40675;SDS011;26359;48.750;9.314;2023-07-13T04:53:12;12.27;;;11.30;;
40675;SDS011;26359;48.750;9.314;2023-07-13T04:55:38;12.07;;;11.27;;
40675;SDS011;26359;48.750;9.314;2023-07-13T04:58:03;14.05;;;13.02;;
40675;SDS011;26359;48.750;9.314;2023-07-13T05:00:29;15.65;;;14.55;;
40675;SDS011;26359;48.750;9.314;2023-07-13T05:02:56;13.73;;;12.82;;
40675;SDS011;26359;48.750;9.314;2023-07-13T05:05:23;10.82;;;9.98;;
40675;SDS011;26359;48.750;9.314;2023-07-13T05:07:49;11.23;;;10.35;;
40675;SDS011;26359;48.750;9.314;2023-07-13T05:10:15;9.05;;;8.20;;
40675;SDS011;26359;48.750;9.314;2023-07-13T05:12:41;16.58;;;15.40;;
40675;SDS011;26359;48.750;9.314;2023-07-13T05:15:07;10.60;;;9.70;;
40675;SDS011;26359;48.750;9.314;2023-07-13T05:17:32;7.43;;;6.72;;
40675;SDS011;26359;48.750;9.314;2023-07-13T05:19:58;7.20;;;6.50;;
40675;SDS011;26359;48.750;9.314;2023-07-13T05:22:24;8.90;;;8.27;;
40675;SDS011;26359;48.750;9.314;2023-07-13T05:24:49;7.43;;;6.55;;
40675;SDS011;26359;48.750;9.314;2023-07-13T05:27:15;6.95;;;6.38;;
40675;SDS011;26359;48.750;9.314;2023-07-13T05:29:41;8.13;;;7.45;;
40675;SDS011;26359;48.750;9.314;2023-07-13T05:32:06;9.23;;;8.60;;
40675;SDS011;26359;48.750;9.314;2023-07-13T05:34:32;9.93;;;8.77;;
40675;SDS011;26359;48.750;9.314;2023-07-13T05:36:58;8.07;;;7.07;;
40675;SDS011;26359;48.750;9.314;2023-07-13T05:39:23;10.48;;;8.70;;
40675;SDS011;26359;48.750;9.314;2023-07-13T05:41:49;8.65;;;7.95;;
40675;SDS011;26359;48.750;9.314;2023-07-13T05:44:15;8.48;;;7.78;;
40675;SDS011;26359;48.750;9.314;2023-07-13T05:46:41;13.70;;;12.82;;
40675;SDS011;26359;48.750;9.314;2023-07-13T05:49:06;15.32;;;14.10;;
40675;SDS011;26359;48.750;9.314;2023-07-13T05:51:32;12.10;;;10.95;;
40675;SDS011;26359;48.750;9.314;2023-07-13T05:53:57;7.93;;;7.43;;
40675;SDS011;26359;48.750;9.314;2023-07-13T05:56:23;18.45;;;17.27;;
40675;SDS011;26359;48.750;9.314;2023-07-13T05:58:48;8.32;;;7.60;;
40675;SDS011;26359;48.750;9.314;2023-07-13T06:01:21;15.23;;;14.15;;
40675;SDS011;26359;48.750;9.314;2023-07-13T06:03:48;13.05;;;12.10;;
40675;SDS011;26359;48.750;9.314;2023-07-13T06:06:14;8.98;;;8.18;;
40675;SDS011;26359;48.750;9.314;2023-07-13T06:08:41;5.82;;;5.28;;
40675;SDS011;26359;48.750;9.314;2023-07-13T06:11:11;13.02;;;12.15;;
40675;SDS011;26359;48.750;9.314;2023-07-13T06:13:40;13.75;;;12.85;;
40675;SDS011;26359;48.750;9.314;2023-07-13T06:16:06;5.25;;;4.75;;
40675;SDS011;26359;48.750;9.314;2023-07-13T06:18:33;12.70;;;11.50;;
40675;SDS011;26359;48.750;9.314;2023-07-13T06:21:00;7.88;;;5.30;;
40675;SDS011;26359;48.750;9.314;2023-07-13T06:23:26;5.95;;;5.43;;
40675;SDS011;26359;48.750;9.314;2023-07-13T06:25:51;7.05;;;6.22;;
40675;SDS011;26359;48.750;9.314;2023-07-13T06:28:18;6.93;;;5.43;;
40675;SDS011;26359;48.750;9.314;2023-07-13T06:30:44;19.42;;;17.92;;
40675;SDS011;26359;48.750;9.314;2023-07-13T06:33:09;14.05;;;13.20;;
40675;SDS011;26359;48.750;9.314;2023-07-13T06:35:35;14.90;;;13.90;;
40675;SDS011;26359;48.750;9.314;2023-07-13T06:38:01;18.60;;;17.38;;
40675;SDS011;26359;48.750;9.314;2023-07-13T06:40:27;9.20;;;7.82;;
40675;SDS011;26359;48.750;9.314;2023-07-13T06:42:54;18.65;;;17.10;;
40675;SDS011;26359;48.750;9.314;2023-07-13T06:45:19;20.40;;;19.00;;
40675;SDS011;26359;48.750;9.314;2023-07-13T06:47:45;22.67;;;21.15;;
40675;SDS011;26359;48.750;9.314;2023-07-13T06:50:10;20.30;;;18.95;;
40675;SDS011;26359;48.750;9.314;2023-07-13T06:52:36;35.60;;;33.35;;
40675;SDS011;26359;48.750;9.314;2023-07-13T06:55:02;37.10;;;34.75;;
40675;SDS011;26359;48.750;9.314;2023-07-13T06:57:27;21.08;;;19.65;;
40675;SDS011;26359;48.750;9.314;2023-07-13T06:59:53;19.05;;;17.73;;
40675;SDS011;26359;48.750;9.314;2023-07-13T07:02:18;10.73;;;10.02;;
40675;SDS011;26359;48.750;9.314;2023-07-13T07:04:44;8.25;;;7.50;;
40675;SDS011;26359;48.750;9.314;2023-07-13T07:07:09;9.52;;;8.65;;
40675;SDS011;26359;48.750;9.314;2023-07-13T07:09:35;8.48;;;7.38;;
40675;SDS011;26359;48.750;9.314;2023-07-13T07:12:00;17.52;;;16.35;;
40675;SDS011;26359;48.750;9.314;2023-07-13T07:14:27;29.35;;;27.60;;
40675;SDS011;26359;48.750;9.314;2023-07-13T07:16:52;41.30;;;38.78;;
40675;SDS011;26359;48.750;9.314;2023-07-13T07:19:18;58.80;;;55.40;;
40675;SDS011;26359;48.750;9.314;2023-07-13T07:21:43;54.53;;;51.63;;
40675;SDS011;26359;48.750;9.314;2023-07-13T07:24:09;18.60;;;17.33;;
40675;SDS011;26359;48.750;9.314;2023-07-13T07:26:34;22.65;;;21.30;;
40675;SDS011;26359;48.750;9.314;2023-07-13T07:29:00;30.00;;;28.27;;
40675;SDS011;26359;48.750;9.314;2023-07-13T07:31:26;21.95;;;20.55;;
40675;SDS011;26359;48.750;9.314;2023-07-13T07:33:51;12.48;;;11.48;;
40675;SDS011;26359;48.750;9.314;2023-07-13T07:36:17;21.98;;;20.60;;
40675;SDS011;26359;48.750;9.314;2023-07-13T07:38:42;16.17;;;14.88;;
40675;SDS011;26359;48.750;9.314;2023-07-13T07:41:08;24.63;;;23.20;;
40675;SDS011;26359;48.750;9.314;2023-07-13T07:43:34;20.35;;;19.05;;
40675;SDS011;26359;48.750;9.314;2023-07-13T07:46:00;9.95;;;9.25;;
40675;SDS011;26359;48.750;9.314;2023-07-13T07:48:26;10.50;;;9.70;;
40675;SDS011;26359;48.750;9.314;2023-07-13T07:50:51;9.63;;;8.73;;
40675;SDS011;26359;48.750;9.314;2023-07-13T07:53:17;8.20;;;7.60;;
40675;SDS011;26359;48.750;9.314;2023-07-13T07:55:42;7.97;;;7.25;;
40675;SDS011;26359;48.750;9.314;2023-07-13T07:58:08;11.90;;;11.15;;
40675;SDS011;26359;48.750;9.314;2023-07-13T08:00:34;7.75;;;7.28;;
40675;SDS011;26359;48.750;9.314;2023-07-13T08:03:00;6.40;;;5.93;;
40675;SDS011;26359;48.750;9.314;2023-07-13T08:05:27;8.73;;;8.00;;
40675;SDS011;26359;48.750;9.314;2023-07-13T08:07:52;7.22;;;6.72;;
40675;SDS011;26359;48.750;9.314;2023-07-13T08:10:18;7.70;;;7.05;;
40675;SDS011;26359;48.750;9.314;2023-07-13T08:12:44;6.72;;;5.30;;
40675;SDS011;26359;48.750;9.314;2023-07-13T08:15:11;8.85;;;8.25;;
40675;SDS011;26359;48.750;9.314;2023-07-13T08:17:38;7.55;;;6.95;;
40675;SDS011;26359;48.750;9.314;2023-07-13T08:20:04;10.93;;;10.13;;
40675;SDS011;26359;48.750;9.314;2023-07-13T08:22:30;11.07;;;10.07;;
40675;SDS011;26359;48.750;9.314;2023-07-13T08:24:56;10.93;;;10.13;;
40675;SDS011;26359;48.750;9.314;2023-07-13T08:27:25;10.48;;;9.63;;
40675;SDS011;26359;48.750;9.314;2023-07-13T08:29:52;11.02;;;10.23;;
40675;SDS011;26359;48.750;9.314;2023-07-13T08:32:18;11.50;;;9.93;;
40675;SDS011;26359;48.750;9.314;2023-07-13T08:34:45;6.45;;;5.85;;
40675;SDS011;26359;48.750;9.314;2023-07-13T08:37:11;7.10;;;6.40;;
40675;SDS011;26359;48.750;9.314;2023-07-13T08:39:37;9.27;;;8.55;;
40675;SDS011;26359;48.750;9.314;2023-07-13T08:42:07;5.72;;;4.10;;
40675;SDS011;26359;48.750;9.314;2023-07-13T08:47:21;6.20;;;4.22;;
40675;SDS011;26359;48.750;9.314;2023-07-13T08:49:48;4.90;;;4.30;;
40675;SDS011;26359;48.750;9.314;2023-07-13T08:54:55;5.15;;;4.68;;
40675;SDS011;26359;48.750;9.314;2023-07-13T08:57:24;5.47;;;4.47;;
40675;SDS011;26359;48.750;9.314;2023-07-13T08:59:55;4.80;;;4.28;;
40675;SDS011;26359;48.750;9.314;2023-07-13T09:05:18;6.75;;;4.50;;
40675;SDS011;26359;48.750;9.314;2023-07-13T09:11:17;8.05;;;7.38;;
40675;SDS011;26359;48.750;9.314;2023-07-13T09:16:25;7.80;;;7.05;;
40675;SDS011;26359;48.750;9.314;2023-07-13T09:18:51;8.95;;;8.05;;
40675;SDS011;26359;48.750;9.314;2023-07-13T09:21:25;8.32;;;5.15;;
40675;SDS011;26359;48.750;9.314;2023-07-13T09:26:58;9.05;;;8.32;;
40675;SDS011;26359;48.750;9.314;2023-07-13T09:29:34;5.55;;;4.50;;
40675;SDS011;26359;48.750;9.314;2023-07-13T09:32:01;6.33;;;4.33;;
40675;SDS011;26359;48.750;9.314;2023-07-13T09:34:30;7.57;;;4.20;;
40675;SDS011;26359;48.750;9.314;2023-07-13T09:36:58;9.23;;;8.52;;
40675;SDS011;26359;48.750;9.314;2023-07-13T09:39:27;8.98;;;8.27;;
40675;SDS011;26359;48.750;9.314;2023-07-13T09:44:59;6.97;;;6.40;;
40675;SDS011;26359;48.750;9.314;2023-07-13T09:47:28;9.87;;;9.13;;
40675;SDS011;26359;48.750;9.314;2023-07-13T09:49:58;11.38;;;10.40;;
40675;SDS011;26359;48.750;9.314;2023-07-13T09:52:26;8.65;;;7.68;;
40675;SDS011;26359;48.750;9.314;2023-07-13T09:54:53;10.02;;;8.60;;
40675;SDS011;26359;48.750;9.314;2023-07-13T09:57:24;4.63;;;4.22;;
40675;SDS011;26359;48.750;9.314;2023-07-13T09:59:52;7.82;;;7.10;;
40675;SDS011;26359;48.750;9.314;2023-07-13T10:05:04;5.97;;;5.40;;
40675;SDS011;26359;48.750;9.314;2023-07-13T10:07:34;9.90;;;9.10;;
40675;SDS011;26359;48.750;9.314;2023-07-13T10:10:12;7.75;;;7.15;;
40675;SDS011;26359;48.750;9.314;2023-07-13T10:12:45;8.02;;;5.63;;
40675;SDS011;26359;48.750;9.314;2023-07-13T10:15:19;6.15;;;5.75;;
40675;SDS011;26359;48.750;9.314;2023-07-13T10:17:54;6.45;;;5.93;;
40675;SDS011;26359;48.750;9.314;2023-07-13T10:20:23;8.45;;;7.68;;
40675;SDS011;26359;48.750;9.314;2023-07-13T10:22:52;8.10;;;7.38;;
40675;SDS011;26359;48.750;9.314;2023-07-13T10:25:23;5.43;;;4.95;;
40675;SDS011;26359;48.750;9.314;2023-07-13T10:27:51;7.72;;;6.63;;
40675;SDS011;26359;48.750;9.314;2023-07-13T10:32:53;7.18;;;5.78;;
40675;SDS011;26359;48.750;9.314;2023-07-13T10:35:20;7.10;;;6.57;;
40675;SDS011;26359;48.750;9.314;2023-07-13T10:37:52;7.82;;;7.20;;
40675;SDS011;26359;48.750;9.314;2023-07-13T10:43:25;21.85;;;20.48;;
40675;SDS011;26359;48.750;9.314;2023-07-13T10:46:02;22.30;;;21.05;;
40675;SDS011;26359;48.750;9.314;2023-07-13T10:48:30;28.45;;;26.73;;
40675;SDS011;26359;48.750;9.314;2023-07-13T10:50:59;19.25;;;18.02;;
40675;SDS011;26359;48.750;9.314;2023-07-13T10:53:33;13.27;;;12.35;;
40675;SDS011;26359;48.750;9.314;2023-07-13T10:56:05;16.67;;;15.70;;
40675;SDS011;26359;48.750;9.314;2023-07-13T10:58:44;10.18;;;9.45;;
40675;SDS011;26359;48.750;9.314;2023-07-13T11:01:12;29.80;;;27.75;;
40675;SDS011;26359;48.750;9.314;2023-07-13T11:08:55;25.85;;;24.33;;
40675;SDS011;26359;48.750;9.314;2023-07-13T11:13:55;6.63;;;6.13;;
40675;SDS011;26359;48.750;9.314;2023-07-13T11:16:36;13.80;;;12.87;;
40675;SDS011;26359;48.750;9.314;2023-07-13T11:27:23;13.05;;;12.05;;
40675;SDS011;26359;48.750;9.314;2023-07-13T11:32:43;12.65;;;11.82;;
40675;SDS011;26359;48.750;9.314;2023-07-13T11:35:12;19.60;;;18.02;;
40675;SDS011;26359;48.750;9.314;2023-07-13T11:37:41;15.80;;;14.88;;
40675;SDS011;26359;48.750;9.314;2023-07-13T11:40:11;7.65;;;7.10;;
40675;SDS011;26359;48.750;9.314;2023-07-13T11:42:39;8.00;;;7.40;;
40675;SDS011;26359;48.750;9.314;2023-07-13T11:45:11;7.25;;;6.75;;
40675;SDS011;26359;48.750;9.314;2023-07-13T11:47:47;8.32;;;7.70;;
40675;SDS011;26359;48.750;9.314;2023-07-13T11:50:22;8.73;;;8.13;;
40675;SDS011;26359;48.750;9.314;2023-07-13T11:52:49;7.75;;;7.15;;
40675;SDS011;26359;48.750;9.314;2023-07-13T11:55:19;6.38;;;5.97;;
40675;SDS011;26359;48.750;9.314;2023-07-13T11:58:08;7.30;;;6.68;;
40675;SDS011;26359;48.750;9.314;2023-07-13T12:00:34;8.20;;;7.50;;
40675;SDS011;26359;48.750;9.314;2023-07-13T12:03:04;18.02;;;16.92;;
40675;SDS011;26359;48.750;9.314;2023-07-13T12:05:30;17.67;;;16.67;;
40675;SDS011;26359;48.750;9.314;2023-07-13T12:07:57;12.98;;;11.98;;
40675;SDS011;26359;48.750;9.314;2023-07-13T12:10:27;8.07;;;6.85;;
40675;SDS011;26359;48.750;9.314;2023-07-13T12:13:02;11.27;;;8.00;;
40675;SDS011;26359;48.750;9.314;2023-07-13T12:18:03;15.90;;;14.80;;
40675;SDS011;26359;48.750;9.314;2023-07-13T12:20:37;10.20;;;9.57;;
40675;SDS011;26359;48.750;9.314;2023-07-13T12:23:47;14.27;;;13.18;;
40675;SDS011;26359;48.750;9.314;2023-07-13T12:25:52;17.55;;;16.45;;
40675;SDS011;26359;48.750;9.314;2023-07-13T12:28:22;9.25;;;8.38;;
40675;SDS011;26359;48.750;9.314;2023-07-13T12:31:07;6.95;;;6.25;;
40675;SDS011;26359;48.750;9.314;2023-07-13T12:33:47;8.43;;;7.82;;
40675;SDS011;26359;48.750;9.314;2023-07-13T12:36:14;6.65;;;5.65;;
40675;SDS011;26359;48.750;9.314;2023-07-13T12:38:40;7.00;;;6.28;;
40675;SDS011;26359;48.750;9.314;2023-07-13T12:41:06;9.27;;;8.60;;
40675;SDS011;26359;48.750;9.314;2023-07-13T12:43:35;10.10;;;9.45;;
40675;SDS011;26359;48.750;9.314;2023-07-13T12:46:03;6.75;;;4.90;;
40675;SDS011;26359;48.750;9.314;2023-07-13T12:48:40;6.40;;;4.80;;
40675;SDS011;26359;48.750;9.314;2023-07-13T12:51:08;5.90;;;5.40;;
40675;SDS011;26359;48.750;9.314;2023-07-13T12:53:39;5.13;;;4.43;;
40675;SDS011;26359;48.750;9.314;2023-07-13T12:56:08;6.28;;;4.97;;
40675;SDS011;26359;48.750;9.314;2023-07-13T12:58:40;5.75;;;4.57;;
40675;SDS011;26359;48.750;9.314;2023-07-13T13:01:09;4.60;;;4.20;;
40675;SDS011;26359;48.750;9.314;2023-07-13T13:03:45;4.72;;;4.30;;
40675;SDS011;26359;48.750;9.314;2023-07-13T13:08:51;7.82;;;7.20;;
40675;SDS011;26359;48.750;9.314;2023-07-13T13:11:19;6.70;;;6.10;;
40675;SDS011;26359;48.750;9.314;2023-07-13T13:13:45;4.38;;;3.85;;
40675;SDS011;26359;48.750;9.314;2023-07-13T13:18:43;9.70;;;5.70;;
40675;SDS011;26359;48.750;9.314;2023-07-13T13:21:09;6.80;;;6.20;;
40675;SDS011;26359;48.750;9.314;2023-07-13T13:23:35;8.45;;;7.85;;
40675;SDS011;26359;48.750;9.314;2023-07-13T13:26:00;6.43;;;5.88;;
40675;SDS011;26359;48.750;9.314;2023-07-13T13:28:27;7.88;;;7.03;;
40675;SDS011;26359;48.750;9.314;2023-07-13T13:30:52;6.72;;;5.90;;
40675;SDS011;26359;48.750;9.314;2023-07-13T13:33:19;7.63;;;7.03;;
40675;SDS011;26359;48.750;9.314;2023-07-13T13:35:46;7.05;;;6.50;;
40675;SDS011;26359;48.750;9.314;2023-07-13T13:38:13;9.43;;;8.45;;
40675;SDS011;26359;48.750;9.314;2023-07-13T13:40:41;10.32;;;9.73;;
40675;SDS011;26359;48.750;9.314;2023-07-13T13:43:13;7.10;;;6.50;;
40675;SDS011;26359;48.750;9.314;2023-07-13T13:45:44;6.80;;;6.15;;
40675;SDS011;26359;48.750;9.314;2023-07-13T13:48:15;7.82;;;7.20;;
40675;SDS011;26359;48.750;9.314;2023-07-13T13:50:43;10.07;;;9.35;;
40675;SDS011;26359;48.750;9.314;2023-07-13T13:53:10;10.20;;;9.57;;
40675;SDS011;26359;48.750;9.314;2023-07-13T13:55:38;10.32;;;9.70;;
40675;SDS011;26359;48.750;9.314;2023-07-13T13:58:03;6.47;;;5.70;;
40675;SDS011;26359;48.750;9.314;2023-07-13T14:00:29;7.25;;;6.38;;
40675;SDS011;26359;48.750;9.314;2023-07-13T14:02:55;7.25;;;6.55;;
40675;SDS011;26359;48.750;9.314;2023-07-13T14:05:22;7.72;;;7.03;;
40675;SDS011;26359;48.750;9.314;2023-07-13T14:07:51;7.57;;;6.95;;
40675;SDS011;26359;48.750;9.314;2023-07-13T14:10:20;6.00;;;5.45;;
40675;SDS011;26359;48.750;9.314;2023-07-13T14:12:47;7.03;;;6.38;;
40675;SDS011;26359;48.750;9.314;2023-07-13T14:15:21;7.78;;;6.57;;
40675;SDS011;26359;48.750;9.314;2023-07-13T14:17:55;7.70;;;6.97;;
40675;SDS011;26359;48.750;9.314;2023-07-13T14:20:23;5.68;;;4.93;;
40675;SDS011;26359;48.750;9.314;2023-07-13T14:22:50;6.78;;;5.88;;
40675;SDS011;26359;48.750;9.314;2023-07-13T14:25:20;8.27;;;6.50;;
40675;SDS011;26359;48.750;9.314;2023-07-13T14:27:48;5.07;;;4.50;;
40675;SDS011;26359;48.750;9.314;2023-07-13T14:30:17;5.15;;;4.45;;
40675;SDS011;26359;48.750;9.314;2023-07-13T14:32:45;13.57;;;12.65;;
40675;SDS011;26359;48.750;9.314;2023-07-13T14:35:11;18.00;;;16.90;;
40675;SDS011;26359;48.750;9.314;2023-07-13T14:37:41;9.38;;;8.65;;
40675;SDS011;26359;48.750;9.314;2023-07-13T14:40:12;9.43;;;8.57;;
40675;SDS011;26359;48.750;9.314;2023-07-13T14:42:42;4.18;;;3.70;;
40675;SDS011;26359;48.750;9.314;2023-07-13T14:45:14;11.57;;;10.70;;
40675;SDS011;26359;48.750;9.314;2023-07-13T14:47:41;4.68;;;4.28;;
40675;SDS011;26359;48.750;9.314;2023-07-13T14:50:11;4.85;;;4.43;;
40675;SDS011;26359;48.750;9.314;2023-07-13T14:52:42;5.90;;;5.40;;
40675;SDS011;26359;48.750;9.314;2023-07-13T14:55:12;4.55;;;3.88;;
40675;SDS011;26359;48.750;9.314;2023-07-13T14:57:39;4.70;;;4.20;;
40675;SDS011;26359;48.750;9.314;2023-07-13T15:00:14;7.05;;;4.15;;
40675;SDS011;26359;48.750;9.314;2023-07-13T15:02:42;4.85;;;4.35;;
40675;SDS011;26359;48.750;9.314;2023-07-13T15:05:16;6.47;;;5.60;;
40675;SDS011;26359;48.750;9.314;2023-07-13T15:07:48;4.82;;;4.53;;
40675;SDS011;26359;48.750;9.314;2023-07-13T15:10:19;5.50;;;5.05;;
40675;SDS011;26359;48.750;9.314;2023-07-13T15:12:46;6.97;;;6.45;;
40675;SDS011;26359;48.750;9.314;2023-07-13T15:15:12;6.30;;;5.47;;
40675;SDS011;26359;48.750;9.314;2023-07-13T15:17:40;8.13;;;7.53;;
40675;SDS011;26359;48.750;9.314;2023-07-13T15:20:18;5.65;;;5.22;;
40675;SDS011;26359;48.750;9.314;2023-07-13T15:22:47;8.75;;;7.95;;
40675;SDS011;26359;48.750;9.314;2023-07-13T15:25:20;10.55;;;9.70;;
40675;SDS011;26359;48.750;9.314;2023-07-13T15:27:52;4.78;;;4.40;;
40675;SDS011;26359;48.750;9.314;2023-07-13T15:30:19;13.32;;;12.52;;
40675;SDS011;26359;48.750;9.314;2023-07-13T15:32:45;7.85;;;7.28;;
40675;SDS011;26359;48.750;9.314;2023-07-13T15:35:15;9.60;;;9.00;;
40675;SDS011;26359;48.750;9.314;2023-07-13T15:37:42;6.15;;;5.63;;
40675;SDS011;26359;48.750;9.314;2023-07-13T15:40:09;8.88;;;8.27;;